sensor_id;sensor_type;location;lat;lon;timestamp;temperature;humidity
17178;DHT22;8704;52.006;4.374;2022-07-31T00:01:16;19.10;1.00
17178;DHT22;8704;52.006;4.374;2022-07-31T00:03:44;19.10;1.00
17178;DHT22;8704;52.006;4.374;2022-07-31T00:06:13;19.10;1.00
17178;DHT22;8704;52.006;4.374;2022-07-31T00:08:41;19.20;11.80
17178;DHT22;8704;52.006;4.374;2022-07-31T00:11:09;19.10;1.00
17178;DHT22;8704;52.006;4.374;2022-07-31T00:13:38;19.20;9.70
17178;DHT22;8704;52.006;4.374;2022-07-31T00:16:24;19.10;13.90
17178;DHT22;8704;52.006;4.374;2022-07-31T00:18:52;19.20;29.70
17178;DHT22;8704;52.006;4.374;2022-07-31T00:21:21;19.10;30.40
17178;DHT22;8704;52.006;4.374;2022-07-31T00:23:50;19.10;37.80
17178;DHT22;8704;52.006;4.374;2022-07-31T00:26:18;19.10;57.00
17178;DHT22;8704;52.006;4.374;2022-07-31T00:28:46;19.10;50.30
17178;DHT22;8704;52.006;4.374;2022-07-31T00:31:14;19.10;76.50
17178;DHT22;8704;52.006;4.374;2022-07-31T00:33:44;19.10;73.70
17178;DHT22;8704;52.006;4.374;2022-07-31T00:36:11;19.10;99.90
17178;DHT22;8704;52.006;4.374;2022-07-31T00:38:41;19.10;99.90
17178;DHT22;8704;52.006;4.374;2022-07-31T00:41:09;19.10;99.90
17178;DHT22;8704;52.006;4.374;2022-07-31T00:43:38;19.20;99.90
17178;DHT22;8704;52.006;4.374;2022-07-31T00:46:06;19.10;99.90
17178;DHT22;8704;52.006;4.374;2022-07-31T00:48:40;19.10;99.90
17178;DHT22;8704;52.006;4.374;2022-07-31T00:51:08;19.10;99.90
17178;DHT22;8704;52.006;4.374;2022-07-31T00:53:36;19.10;99.90
17178;DHT22;8704;52.006;4.374;2022-07-31T00:56:05;19.10;99.90
17178;DHT22;8704;52.006;4.374;2022-07-31T00:58:33;19.20;99.90
17178;DHT22;8704;52.006;4.374;2022-07-31T01:01:01;19.10;99.90
17178;DHT22;8704;52.006;4.374;2022-07-31T01:03:30;19.20;99.90
17178;DHT22;8704;52.006;4.374;2022-07-31T01:05:57;19.30;99.90
17178;DHT22;8704;52.006;4.374;2022-07-31T01:08:25;19.20;99.90
17178;DHT22;8704;52.006;4.374;2022-07-31T01:10:57;19.20;99.90
17178;DHT22;8704;52.006;4.374;2022-07-31T01:13:32;19.20;99.90
17178;DHT22;8704;52.006;4.374;2022-07-31T01:16:04;19.10;99.90
17178;DHT22;8704;52.006;4.374;2022-07-31T01:18:35;19.20;99.90
17178;DHT22;8704;52.006;4.374;2022-07-31T01:21:06;19.00;99.90
17178;DHT22;8704;52.006;4.374;2022-07-31T01:23:48;19.10;99.90
17178;DHT22;8704;52.006;4.374;2022-07-31T01:26:33;19.10;99.90
17178;DHT22;8704;52.006;4.374;2022-07-31T01:29:09;19.20;99.90
17178;DHT22;8704;52.006;4.374;2022-07-31T01:31:44;19.20;99.90
17178;DHT22;8704;52.006;4.374;2022-07-31T01:34:19;19.10;99.90
17178;DHT22;8704;52.006;4.374;2022-07-31T01:36:56;19.20;99.90
17178;DHT22;8704;52.006;4.374;2022-07-31T01:39:26;19.20;99.90
17178;DHT22;8704;52.006;4.374;2022-07-31T01:42:02;19.20;99.90
17178;DHT22;8704;52.006;4.374;2022-07-31T01:44:35;19.10;99.90
17178;DHT22;8704;52.006;4.374;2022-07-31T01:47:04;19.20;99.90
17178;DHT22;8704;52.006;4.374;2022-07-31T01:49:34;19.20;99.90
17178;DHT22;8704;52.006;4.374;2022-07-31T01:52:04;19.40;99.90
17178;DHT22;8704;52.006;4.374;2022-07-31T01:54:33;19.20;99.90
17178;DHT22;8704;52.006;4.374;2022-07-31T01:57:02;19.30;99.90
17178;DHT22;8704;52.006;4.374;2022-07-31T01:59:32;19.20;99.90
17178;DHT22;8704;52.006;4.374;2022-07-31T02:02:03;19.20;99.90
17178;DHT22;8704;52.006;4.374;2022-07-31T02:04:36;19.20;99.90
17178;DHT22;8704;52.006;4.374;2022-07-31T02:07:05;19.20;99.90
17178;DHT22;8704;52.006;4.374;2022-07-31T02:09:34;19.20;99.90
17178;DHT22;8704;52.006;4.374;2022-07-31T02:12:04;19.20;99.90
17178;DHT22;8704;52.006;4.374;2022-07-31T02:14:37;19.20;99.90
17178;DHT22;8704;52.006;4.374;2022-07-31T02:17:08;19.20;99.90
17178;DHT22;8704;52.006;4.374;2022-07-31T02:19:38;19.20;99.90
17178;DHT22;8704;52.006;4.374;2022-07-31T02:22:25;19.20;99.90
17178;DHT22;8704;52.006;4.374;2022-07-31T02:24:55;19.20;99.90
17178;DHT22;8704;52.006;4.374;2022-07-31T02:27:24;19.20;99.90
17178;DHT22;8704;52.006;4.374;2022-07-31T02:30:15;19.30;99.90
17178;DHT22;8704;52.006;4.374;2022-07-31T02:32:46;19.10;99.90
17178;DHT22;8704;52.006;4.374;2022-07-31T02:35:16;19.20;99.90
17178;DHT22;8704;52.006;4.374;2022-07-31T02:37:44;19.10;99.90
17178;DHT22;8704;52.006;4.374;2022-07-31T02:40:14;19.20;99.90
17178;DHT22;8704;52.006;4.374;2022-07-31T02:42:43;19.20;99.90
17178;DHT22;8704;52.006;4.374;2022-07-31T02:45:12;19.30;99.90
17178;DHT22;8704;52.006;4.374;2022-07-31T02:47:42;19.20;99.90
17178;DHT22;8704;52.006;4.374;2022-07-31T02:50:12;19.20;99.90
17178;DHT22;8704;52.006;4.374;2022-07-31T02:52:46;19.20;99.90
17178;DHT22;8704;52.006;4.374;2022-07-31T02:55:14;19.20;99.90
17178;DHT22;8704;52.006;4.374;2022-07-31T02:57:42;19.20;99.90
17178;DHT22;8704;52.006;4.374;2022-07-31T03:00:15;19.20;99.90
17178;DHT22;8704;52.006;4.374;2022-07-31T03:02:48;19.20;99.90
17178;DHT22;8704;52.006;4.374;2022-07-31T03:05:18;19.20;99.90
17178;DHT22;8704;52.006;4.374;2022-07-31T03:07:46;19.20;99.90
17178;DHT22;8704;52.006;4.374;2022-07-31T03:10:14;19.20;99.90
17178;DHT22;8704;52.006;4.374;2022-07-31T03:12:45;19.20;99.90
17178;DHT22;8704;52.006;4.374;2022-07-31T03:15:15;19.20;99.90
17178;DHT22;8704;52.006;4.374;2022-07-31T03:17:44;19.10;99.90
17178;DHT22;8704;52.006;4.374;2022-07-31T03:20:13;19.20;99.90
17178;DHT22;8704;52.006;4.374;2022-07-31T03:22:43;19.20;99.90
17178;DHT22;8704;52.006;4.374;2022-07-31T03:25:12;19.10;99.90
17178;DHT22;8704;52.006;4.374;2022-07-31T03:27:48;19.30;99.90
17178;DHT22;8704;52.006;4.374;2022-07-31T03:30:23;19.30;99.90
17178;DHT22;8704;52.006;4.374;2022-07-31T03:32:51;19.20;99.90
17178;DHT22;8704;52.006;4.374;2022-07-31T03:35:19;19.20;99.90
17178;DHT22;8704;52.006;4.374;2022-07-31T03:37:49;19.20;99.90
17178;DHT22;8704;52.006;4.374;2022-07-31T03:40:17;19.20;99.90
17178;DHT22;8704;52.006;4.374;2022-07-31T03:42:46;19.30;99.90
17178;DHT22;8704;52.006;4.374;2022-07-31T03:45:15;19.20;99.90
17178;DHT22;8704;52.006;4.374;2022-07-31T03:47:44;19.20;99.90
17178;DHT22;8704;52.006;4.374;2022-07-31T03:50:12;19.30;99.90
17178;DHT22;8704;52.006;4.374;2022-07-31T03:52:41;19.20;99.90
17178;DHT22;8704;52.006;4.374;2022-07-31T03:55:11;19.10;99.90
17178;DHT22;8704;52.006;4.374;2022-07-31T03:57:39;19.20;99.90
17178;DHT22;8704;52.006;4.374;2022-07-31T04:00:10;19.20;99.90
17178;DHT22;8704;52.006;4.374;2022-07-31T04:02:43;19.20;99.90
17178;DHT22;8704;52.006;4.374;2022-07-31T04:05:11;19.20;99.90
17178;DHT22;8704;52.006;4.374;2022-07-31T04:07:39;19.20;99.90
17178;DHT22;8704;52.006;4.374;2022-07-31T04:10:08;19.30;99.90
17178;DHT22;8704;52.006;4.374;2022-07-31T04:12:38;19.20;99.90
17178;DHT22;8704;52.006;4.374;2022-07-31T04:15:06;19.20;99.90
17178;DHT22;8704;52.006;4.374;2022-07-31T04:17:35;19.20;99.90
17178;DHT22;8704;52.006;4.374;2022-07-31T04:20:03;19.30;99.90
17178;DHT22;8704;52.006;4.374;2022-07-31T04:22:31;19.20;99.90
17178;DHT22;8704;52.006;4.374;2022-07-31T04:25:01;19.20;99.90
17178;DHT22;8704;52.006;4.374;2022-07-31T04:27:29;19.20;99.90
17178;DHT22;8704;52.006;4.374;2022-07-31T04:29:58;19.30;99.90
17178;DHT22;8704;52.006;4.374;2022-07-31T04:32:28;19.30;99.90
17178;DHT22;8704;52.006;4.374;2022-07-31T04:34:56;19.30;99.90
17178;DHT22;8704;52.006;4.374;2022-07-31T04:37:24;19.30;99.90
17178;DHT22;8704;52.006;4.374;2022-07-31T04:39:52;19.30;99.90
17178;DHT22;8704;52.006;4.374;2022-07-31T04:42:20;19.30;99.90
17178;DHT22;8704;52.006;4.374;2022-07-31T04:44:48;19.30;99.90
17178;DHT22;8704;52.006;4.374;2022-07-31T04:47:18;19.30;99.90
17178;DHT22;8704;52.006;4.374;2022-07-31T04:49:46;19.30;99.90
17178;DHT22;8704;52.006;4.374;2022-07-31T04:52:14;19.30;99.90
17178;DHT22;8704;52.006;4.374;2022-07-31T04:54:42;19.40;99.90
17178;DHT22;8704;52.006;4.374;2022-07-31T04:57:10;19.30;99.90
17178;DHT22;8704;52.006;4.374;2022-07-31T04:59:38;19.40;99.90
17178;DHT22;8704;52.006;4.374;2022-07-31T05:02:27;19.40;99.90
17178;DHT22;8704;52.006;4.374;2022-07-31T05:04:55;19.40;99.90
17178;DHT22;8704;52.006;4.374;2022-07-31T05:07:24;19.40;99.90
17178;DHT22;8704;52.006;4.374;2022-07-31T05:09:54;19.50;99.90
17178;DHT22;8704;52.006;4.374;2022-07-31T05:12:22;19.50;99.90
17178;DHT22;8704;52.006;4.374;2022-07-31T05:14:50;19.50;99.90
17178;DHT22;8704;52.006;4.374;2022-07-31T05:17:21;19.60;99.90
17178;DHT22;8704;52.006;4.374;2022-07-31T05:19:56;19.50;99.90
17178;DHT22;8704;52.006;4.374;2022-07-31T05:22:24;19.70;99.90
17178;DHT22;8704;52.006;4.374;2022-07-31T05:24:52;19.50;99.90
17178;DHT22;8704;52.006;4.374;2022-07-31T05:27:20;19.50;99.90
17178;DHT22;8704;52.006;4.374;2022-07-31T05:29:48;19.50;99.90
17178;DHT22;8704;52.006;4.374;2022-07-31T05:32:16;19.60;99.90
17178;DHT22;8704;52.006;4.374;2022-07-31T05:34:44;19.50;99.90
17178;DHT22;8704;52.006;4.374;2022-07-31T05:37:13;19.60;99.90
17178;DHT22;8704;52.006;4.374;2022-07-31T05:39:41;19.60;99.90
17178;DHT22;8704;52.006;4.374;2022-07-31T05:42:09;19.60;99.90
17178;DHT22;8704;52.006;4.374;2022-07-31T05:44:37;19.60;99.90
17178;DHT22;8704;52.006;4.374;2022-07-31T05:47:06;19.60;99.90
17178;DHT22;8704;52.006;4.374;2022-07-31T05:49:34;19.60;99.90
17178;DHT22;8704;52.006;4.374;2022-07-31T05:52:02;19.60;99.90
17178;DHT22;8704;52.006;4.374;2022-07-31T05:54:32;19.70;99.90
17178;DHT22;8704;52.006;4.374;2022-07-31T05:57:00;19.70;99.90
17178;DHT22;8704;52.006;4.374;2022-07-31T05:59:28;19.80;99.90
17178;DHT22;8704;52.006;4.374;2022-07-31T06:01:57;19.80;99.90
17178;DHT22;8704;52.006;4.374;2022-07-31T06:04:26;19.80;99.90
17178;DHT22;8704;52.006;4.374;2022-07-31T06:06:54;19.90;99.90
17178;DHT22;8704;52.006;4.374;2022-07-31T06:09:23;19.90;99.90
17178;DHT22;8704;52.006;4.374;2022-07-31T06:11:52;19.90;99.90
17178;DHT22;8704;52.006;4.374;2022-07-31T06:14:20;20.00;99.90
17178;DHT22;8704;52.006;4.374;2022-07-31T06:16:48;19.90;99.90
17178;DHT22;8704;52.006;4.374;2022-07-31T06:19:16;19.80;99.90
17178;DHT22;8704;52.006;4.374;2022-07-31T06:21:50;19.90;99.90
17178;DHT22;8704;52.006;4.374;2022-07-31T06:24:19;20.00;99.90
17178;DHT22;8704;52.006;4.374;2022-07-31T06:26:47;20.00;99.90
17178;DHT22;8704;52.006;4.374;2022-07-31T06:29:17;20.10;99.90
17178;DHT22;8704;52.006;4.374;2022-07-31T06:32:05;20.10;99.90
17178;DHT22;8704;52.006;4.374;2022-07-31T06:34:34;20.10;99.90
17178;DHT22;8704;52.006;4.374;2022-07-31T06:37:02;20.10;99.90
17178;DHT22;8704;52.006;4.374;2022-07-31T06:39:30;20.10;99.90
17178;DHT22;8704;52.006;4.374;2022-07-31T06:42:18;20.10;99.90
17178;DHT22;8704;52.006;4.374;2022-07-31T06:44:48;20.20;99.90
17178;DHT22;8704;52.006;4.374;2022-07-31T06:47:16;20.30;99.90
17178;DHT22;8704;52.006;4.374;2022-07-31T06:49:45;20.30;99.90
17178;DHT22;8704;52.006;4.374;2022-07-31T06:52:13;20.30;99.90
17178;DHT22;8704;52.006;4.374;2022-07-31T06:54:41;20.30;99.90
17178;DHT22;8704;52.006;4.374;2022-07-31T06:57:09;20.40;99.90
17178;DHT22;8704;52.006;4.374;2022-07-31T06:59:38;20.40;99.90
17178;DHT22;8704;52.006;4.374;2022-07-31T07:02:08;20.40;99.90
17178;DHT22;8704;52.006;4.374;2022-07-31T07:04:36;20.40;99.90
17178;DHT22;8704;52.006;4.374;2022-07-31T07:07:24;20.40;99.90
17178;DHT22;8704;52.006;4.374;2022-07-31T07:09:57;20.40;99.90
17178;DHT22;8704;52.006;4.374;2022-07-31T07:12:25;20.40;99.90
17178;DHT22;8704;52.006;4.374;2022-07-31T07:14:54;20.40;99.90
17178;DHT22;8704;52.006;4.374;2022-07-31T07:17:23;20.50;99.90
17178;DHT22;8704;52.006;4.374;2022-07-31T07:19:55;20.50;99.90
17178;DHT22;8704;52.006;4.374;2022-07-31T07:22:23;20.50;99.90
17178;DHT22;8704;52.006;4.374;2022-07-31T07:24:58;20.50;99.90
17178;DHT22;8704;52.006;4.374;2022-07-31T07:27:26;20.50;99.90
17178;DHT22;8704;52.006;4.374;2022-07-31T07:29:55;20.50;99.90
17178;DHT22;8704;52.006;4.374;2022-07-31T07:32:24;20.70;99.90
17178;DHT22;8704;52.006;4.374;2022-07-31T07:34:52;20.50;99.90
17178;DHT22;8704;52.006;4.374;2022-07-31T07:37:26;20.50;99.90
17178;DHT22;8704;52.006;4.374;2022-07-31T07:39:55;20.60;99.90
17178;DHT22;8704;52.006;4.374;2022-07-31T07:42:29;20.50;99.90
17178;DHT22;8704;52.006;4.374;2022-07-31T07:44:57;20.60;99.90
17178;DHT22;8704;52.006;4.374;2022-07-31T07:47:29;20.60;99.90
17178;DHT22;8704;52.006;4.374;2022-07-31T07:50:17;20.60;99.90
17178;DHT22;8704;52.006;4.374;2022-07-31T07:52:45;20.60;99.90
17178;DHT22;8704;52.006;4.374;2022-07-31T07:55:13;20.50;99.90
17178;DHT22;8704;52.006;4.374;2022-07-31T07:57:43;20.60;99.90
17178;DHT22;8704;52.006;4.374;2022-07-31T08:00:12;20.50;99.90
17178;DHT22;8704;52.006;4.374;2022-07-31T08:02:43;20.50;99.90
17178;DHT22;8704;52.006;4.374;2022-07-31T08:05:31;20.60;99.90
17178;DHT22;8704;52.006;4.374;2022-07-31T08:07:59;20.60;99.90
17178;DHT22;8704;52.006;4.374;2022-07-31T08:10:27;20.50;99.90
17178;DHT22;8704;52.006;4.374;2022-07-31T08:12:55;20.60;99.90
17178;DHT22;8704;52.006;4.374;2022-07-31T08:15:23;20.60;99.90
17178;DHT22;8704;52.006;4.374;2022-07-31T08:17:53;20.60;99.90
17178;DHT22;8704;52.006;4.374;2022-07-31T08:20:21;20.60;99.90
17178;DHT22;8704;52.006;4.374;2022-07-31T08:22:49;20.60;99.90
17178;DHT22;8704;52.006;4.374;2022-07-31T08:25:17;20.60;99.90
17178;DHT22;8704;52.006;4.374;2022-07-31T08:27:47;20.70;99.90
17178;DHT22;8704;52.006;4.374;2022-07-31T08:30:16;20.60;99.90
17178;DHT22;8704;52.006;4.374;2022-07-31T08:32:44;20.50;99.90
17178;DHT22;8704;52.006;4.374;2022-07-31T08:35:13;20.60;99.90
17178;DHT22;8704;52.006;4.374;2022-07-31T08:37:41;20.70;99.90
17178;DHT22;8704;52.006;4.374;2022-07-31T08:40:29;20.70;99.90
17178;DHT22;8704;52.006;4.374;2022-07-31T08:43:00;20.60;99.90
17178;DHT22;8704;52.006;4.374;2022-07-31T08:45:49;20.60;99.90
17178;DHT22;8704;52.006;4.374;2022-07-31T08:48:20;20.60;99.90
17178;DHT22;8704;52.006;4.374;2022-07-31T08:50:53;20.70;99.90
17178;DHT22;8704;52.006;4.374;2022-07-31T08:53:22;20.70;99.90
17178;DHT22;8704;52.006;4.374;2022-07-31T08:55:50;20.70;99.90
17178;DHT22;8704;52.006;4.374;2022-07-31T08:58:22;20.80;99.90
17178;DHT22;8704;52.006;4.374;2022-07-31T09:00:50;20.80;99.90
17178;DHT22;8704;52.006;4.374;2022-07-31T09:03:18;20.70;99.90
17178;DHT22;8704;52.006;4.374;2022-07-31T09:05:46;20.80;99.90
17178;DHT22;8704;52.006;4.374;2022-07-31T09:08:16;20.70;99.90
17178;DHT22;8704;52.006;4.374;2022-07-31T09:10:44;20.70;99.90
17178;DHT22;8704;52.006;4.374;2022-07-31T09:13:17;20.70;99.90
17178;DHT22;8704;52.006;4.374;2022-07-31T09:15:45;20.70;99.90
17178;DHT22;8704;52.006;4.374;2022-07-31T09:18:17;20.80;99.90
17178;DHT22;8704;52.006;4.374;2022-07-31T09:20:54;20.80;99.90
17178;DHT22;8704;52.006;4.374;2022-07-31T09:23:25;20.70;99.90
17178;DHT22;8704;52.006;4.374;2022-07-31T09:25:54;20.80;99.90
17178;DHT22;8704;52.006;4.374;2022-07-31T09:28:31;20.70;99.90
17178;DHT22;8704;52.006;4.374;2022-07-31T09:31:00;20.80;99.90
17178;DHT22;8704;52.006;4.374;2022-07-31T09:33:29;20.80;99.90
17178;DHT22;8704;52.006;4.374;2022-07-31T09:35:58;20.70;99.90
17178;DHT22;8704;52.006;4.374;2022-07-31T09:38:32;20.60;99.90
17178;DHT22;8704;52.006;4.374;2022-07-31T09:41:10;20.60;99.90
17178;DHT22;8704;52.006;4.374;2022-07-31T09:44:02;20.50;99.90
17178;DHT22;8704;52.006;4.374;2022-07-31T09:46:40;20.60;99.90
17178;DHT22;8704;52.006;4.374;2022-07-31T09:49:09;20.70;99.90
17178;DHT22;8704;52.006;4.374;2022-07-31T09:51:38;20.50;99.90
17178;DHT22;8704;52.006;4.374;2022-07-31T09:54:18;20.50;99.90
17178;DHT22;8704;52.006;4.374;2022-07-31T09:56:47;20.50;99.90
17178;DHT22;8704;52.006;4.374;2022-07-31T09:59:15;20.50;99.90
17178;DHT22;8704;52.006;4.374;2022-07-31T10:01:45;20.50;99.90
17178;DHT22;8704;52.006;4.374;2022-07-31T10:04:16;20.40;99.90
17178;DHT22;8704;52.006;4.374;2022-07-31T10:06:46;20.50;99.90
17178;DHT22;8704;52.006;4.374;2022-07-31T10:09:17;20.40;99.90
17178;DHT22;8704;52.006;4.374;2022-07-31T10:11:45;20.50;99.90
17178;DHT22;8704;52.006;4.374;2022-07-31T10:14:18;20.50;99.90
17178;DHT22;8704;52.006;4.374;2022-07-31T10:16:48;20.50;99.90
17178;DHT22;8704;52.006;4.374;2022-07-31T10:19:19;20.50;99.90
17178;DHT22;8704;52.006;4.374;2022-07-31T10:21:52;20.50;99.90
17178;DHT22;8704;52.006;4.374;2022-07-31T10:24:25;20.50;99.90
17178;DHT22;8704;52.006;4.374;2022-07-31T10:26:55;20.50;99.90
17178;DHT22;8704;52.006;4.374;2022-07-31T10:29:27;20.60;99.90
17178;DHT22;8704;52.006;4.374;2022-07-31T10:31:59;20.60;99.90
17178;DHT22;8704;52.006;4.374;2022-07-31T10:34:27;20.60;99.90
17178;DHT22;8704;52.006;4.374;2022-07-31T10:37:02;20.60;99.90
17178;DHT22;8704;52.006;4.374;2022-07-31T10:39:44;20.60;99.90
17178;DHT22;8704;52.006;4.374;2022-07-31T10:42:27;20.60;99.90
17178;DHT22;8704;52.006;4.374;2022-07-31T10:45:04;20.60;99.90
17178;DHT22;8704;52.006;4.374;2022-07-31T10:47:33;20.70;99.90
17178;DHT22;8704;52.006;4.374;2022-07-31T10:50:02;20.60;99.90
17178;DHT22;8704;52.006;4.374;2022-07-31T10:52:32;20.60;99.90
17178;DHT22;8704;52.006;4.374;2022-07-31T10:55:11;20.60;99.90
17178;DHT22;8704;52.006;4.374;2022-07-31T10:57:41;20.60;99.90
17178;DHT22;8704;52.006;4.374;2022-07-31T11:00:25;20.80;99.90
17178;DHT22;8704;52.006;4.374;2022-07-31T11:02:56;20.90;99.90
17178;DHT22;8704;52.006;4.374;2022-07-31T11:05:24;20.90;99.90
17178;DHT22;8704;52.006;4.374;2022-07-31T11:07:59;21.00;99.90
17178;DHT22;8704;52.006;4.374;2022-07-31T11:10:29;21.00;99.90
17178;DHT22;8704;52.006;4.374;2022-07-31T11:13:00;21.00;99.90
17178;DHT22;8704;52.006;4.374;2022-07-31T11:15:30;21.10;99.90
17178;DHT22;8704;52.006;4.374;2022-07-31T11:17:58;21.10;99.90
17178;DHT22;8704;52.006;4.374;2022-07-31T11:21:00;21.30;99.90
17178;DHT22;8704;52.006;4.374;2022-07-31T11:23:48;21.20;99.90
17178;DHT22;8704;52.006;4.374;2022-07-31T11:26:29;21.30;99.90
17178;DHT22;8704;52.006;4.374;2022-07-31T11:29:08;21.40;99.90
17178;DHT22;8704;52.006;4.374;2022-07-31T11:31:58;21.40;99.90
17178;DHT22;8704;52.006;4.374;2022-07-31T11:34:27;21.30;99.90
17178;DHT22;8704;52.006;4.374;2022-07-31T11:36:55;21.40;99.90
17178;DHT22;8704;52.006;4.374;2022-07-31T11:39:23;21.40;99.90
17178;DHT22;8704;52.006;4.374;2022-07-31T11:42:04;21.50;99.90
17178;DHT22;8704;52.006;4.374;2022-07-31T11:44:33;21.50;99.90
17178;DHT22;8704;52.006;4.374;2022-07-31T11:47:01;21.70;99.90
17178;DHT22;8704;52.006;4.374;2022-07-31T11:49:59;21.70;99.90
17178;DHT22;8704;52.006;4.374;2022-07-31T11:52:27;21.60;99.90
17178;DHT22;8704;52.006;4.374;2022-07-31T11:55:04;21.70;99.90
17178;DHT22;8704;52.006;4.374;2022-07-31T11:57:37;21.80;99.90
17178;DHT22;8704;52.006;4.374;2022-07-31T12:00:18;21.80;99.90
17178;DHT22;8704;52.006;4.374;2022-07-31T12:02:56;21.90;99.90
17178;DHT22;8704;52.006;4.374;2022-07-31T12:05:24;21.90;99.90
17178;DHT22;8704;52.006;4.374;2022-07-31T12:08:05;22.00;99.90
17178;DHT22;8704;52.006;4.374;2022-07-31T12:10:33;22.10;99.90
17178;DHT22;8704;52.006;4.374;2022-07-31T12:13:03;22.10;99.90
17178;DHT22;8704;52.006;4.374;2022-07-31T12:15:31;22.10;99.90
17178;DHT22;8704;52.006;4.374;2022-07-31T12:18:00;22.20;99.90
17178;DHT22;8704;52.006;4.374;2022-07-31T12:20:28;22.20;99.90
17178;DHT22;8704;52.006;4.374;2022-07-31T12:23:03;22.10;99.90
17178;DHT22;8704;52.006;4.374;2022-07-31T12:25:39;22.00;99.90
17178;DHT22;8704;52.006;4.374;2022-07-31T12:28:09;21.90;99.90
17178;DHT22;8704;52.006;4.374;2022-07-31T12:30:39;22.00;99.90
17178;DHT22;8704;52.006;4.374;2022-07-31T12:33:09;21.90;99.90
17178;DHT22;8704;52.006;4.374;2022-07-31T12:35:38;21.90;99.90
17178;DHT22;8704;52.006;4.374;2022-07-31T12:38:23;21.90;99.90
17178;DHT22;8704;52.006;4.374;2022-07-31T12:41:11;21.90;99.90
17178;DHT22;8704;52.006;4.374;2022-07-31T12:43:41;22.00;99.90
17178;DHT22;8704;52.006;4.374;2022-07-31T12:46:19;21.80;99.90
17178;DHT22;8704;52.006;4.374;2022-07-31T12:48:47;21.90;99.90
17178;DHT22;8704;52.006;4.374;2022-07-31T12:51:15;21.90;99.90
17178;DHT22;8704;52.006;4.374;2022-07-31T12:54:06;21.90;99.90
17178;DHT22;8704;52.006;4.374;2022-07-31T12:56:34;21.90;99.90
17178;DHT22;8704;52.006;4.374;2022-07-31T12:59:04;21.80;99.90
17178;DHT22;8704;52.006;4.374;2022-07-31T13:01:33;21.80;99.90
17178;DHT22;8704;52.006;4.374;2022-07-31T13:04:01;21.70;99.90
17178;DHT22;8704;52.006;4.374;2022-07-31T13:06:33;21.70;99.90
17178;DHT22;8704;52.006;4.374;2022-07-31T13:09:02;21.80;99.90
17178;DHT22;8704;52.006;4.374;2022-07-31T13:11:30;21.60;99.90
17178;DHT22;8704;52.006;4.374;2022-07-31T13:14:15;21.70;99.90
17178;DHT22;8704;52.006;4.374;2022-07-31T13:16:43;21.70;99.90
17178;DHT22;8704;52.006;4.374;2022-07-31T13:19:12;21.70;99.90
17178;DHT22;8704;52.006;4.374;2022-07-31T13:21:40;21.70;99.90
17178;DHT22;8704;52.006;4.374;2022-07-31T13:24:16;21.60;99.90
17178;DHT22;8704;52.006;4.374;2022-07-31T13:26:44;21.50;99.90
17178;DHT22;8704;52.006;4.374;2022-07-31T13:29:12;21.50;99.90
17178;DHT22;8704;52.006;4.374;2022-07-31T13:31:42;21.60;99.90
17178;DHT22;8704;52.006;4.374;2022-07-31T13:34:10;21.60;99.90
17178;DHT22;8704;52.006;4.374;2022-07-31T13:36:38;21.50;99.90
17178;DHT22;8704;52.006;4.374;2022-07-31T13:39:06;21.50;99.90
17178;DHT22;8704;52.006;4.374;2022-07-31T13:41:34;21.60;99.90
17178;DHT22;8704;52.006;4.374;2022-07-31T13:44:05;21.50;99.90
17178;DHT22;8704;52.006;4.374;2022-07-31T13:46:33;21.50;99.90
17178;DHT22;8704;52.006;4.374;2022-07-31T13:49:03;21.40;99.90
17178;DHT22;8704;52.006;4.374;2022-07-31T13:51:34;21.50;99.90
17178;DHT22;8704;52.006;4.374;2022-07-31T13:54:03;21.50;99.90
17178;DHT22;8704;52.006;4.374;2022-07-31T13:56:31;21.40;99.90
17178;DHT22;8704;52.006;4.374;2022-07-31T13:59:08;21.30;99.90
17178;DHT22;8704;52.006;4.374;2022-07-31T14:01:37;21.30;99.90
17178;DHT22;8704;52.006;4.374;2022-07-31T14:04:26;21.30;99.90
17178;DHT22;8704;52.006;4.374;2022-07-31T14:06:58;21.30;99.90
17178;DHT22;8704;52.006;4.374;2022-07-31T14:09:26;21.30;99.90
17178;DHT22;8704;52.006;4.374;2022-07-31T14:11:55;21.30;99.90
17178;DHT22;8704;52.006;4.374;2022-07-31T14:14:23;21.30;99.90
17178;DHT22;8704;52.006;4.374;2022-07-31T14:16:51;21.20;99.90
17178;DHT22;8704;52.006;4.374;2022-07-31T14:19:19;21.10;99.90
17178;DHT22;8704;52.006;4.374;2022-07-31T14:21:48;21.20;99.90
17178;DHT22;8704;52.006;4.374;2022-07-31T14:24:23;21.20;99.90
17178;DHT22;8704;52.006;4.374;2022-07-31T14:26:51;21.10;99.90
17178;DHT22;8704;52.006;4.374;2022-07-31T14:29:19;21.00;99.90
17178;DHT22;8704;52.006;4.374;2022-07-31T14:31:47;21.00;99.90
17178;DHT22;8704;52.006;4.374;2022-07-31T14:34:15;21.00;99.90
17178;DHT22;8704;52.006;4.374;2022-07-31T14:36:43;21.00;99.90
17178;DHT22;8704;52.006;4.374;2022-07-31T14:39:12;20.90;99.90
17178;DHT22;8704;52.006;4.374;2022-07-31T14:41:40;21.10;99.90
17178;DHT22;8704;52.006;4.374;2022-07-31T14:44:08;21.00;99.90
17178;DHT22;8704;52.006;4.374;2022-07-31T14:46:36;21.10;99.90
17178;DHT22;8704;52.006;4.374;2022-07-31T14:49:04;21.10;99.90
17178;DHT22;8704;52.006;4.374;2022-07-31T14:51:34;21.20;99.90
17178;DHT22;8704;52.006;4.374;2022-07-31T14:54:02;21.10;99.90
17178;DHT22;8704;52.006;4.374;2022-07-31T14:56:32;21.10;99.90
17178;DHT22;8704;52.006;4.374;2022-07-31T14:59:20;21.10;99.90
17178;DHT22;8704;52.006;4.374;2022-07-31T15:01:48;21.00;99.90
17178;DHT22;8704;52.006;4.374;2022-07-31T15:04:16;21.00;99.90
17178;DHT22;8704;52.006;4.374;2022-07-31T15:06:44;21.00;99.90
17178;DHT22;8704;52.006;4.374;2022-07-31T15:09:32;21.10;99.90
17178;DHT22;8704;52.006;4.374;2022-07-31T15:12:01;21.30;99.90
17178;DHT22;8704;52.006;4.374;2022-07-31T15:14:29;21.10;99.90
17178;DHT22;8704;52.006;4.374;2022-07-31T15:16:57;21.10;99.90
17178;DHT22;8704;52.006;4.374;2022-07-31T15:19:25;21.20;99.90
17178;DHT22;8704;52.006;4.374;2022-07-31T15:21:53;21.20;99.90
17178;DHT22;8704;52.006;4.374;2022-07-31T15:24:41;21.20;99.90
17178;DHT22;8704;52.006;4.374;2022-07-31T15:27:17;21.20;99.90
17178;DHT22;8704;52.006;4.374;2022-07-31T15:29:46;21.20;99.90
17178;DHT22;8704;52.006;4.374;2022-07-31T15:32:32;21.30;99.90
17178;DHT22;8704;52.006;4.374;2022-07-31T15:35:00;21.20;99.90
17178;DHT22;8704;52.006;4.374;2022-07-31T15:37:28;21.20;99.90
17178;DHT22;8704;52.006;4.374;2022-07-31T15:39:56;21.10;99.90
17178;DHT22;8704;52.006;4.374;2022-07-31T15:42:30;21.20;99.90
17178;DHT22;8704;52.006;4.374;2022-07-31T15:44:58;21.20;99.90
17178;DHT22;8704;52.006;4.374;2022-07-31T15:47:26;21.20;99.90
17178;DHT22;8704;52.006;4.374;2022-07-31T15:49:54;21.30;99.90
17178;DHT22;8704;52.006;4.374;2022-07-31T15:52:22;21.20;99.90
17178;DHT22;8704;52.006;4.374;2022-07-31T15:54:51;21.20;99.90
17178;DHT22;8704;52.006;4.374;2022-07-31T15:57:19;21.20;99.90
17178;DHT22;8704;52.006;4.374;2022-07-31T15:59:49;21.20;99.90
17178;DHT22;8704;52.006;4.374;2022-07-31T16:02:20;21.30;99.90
17178;DHT22;8704;52.006;4.374;2022-07-31T16:04:48;21.20;99.90
17178;DHT22;8704;52.006;4.374;2022-07-31T16:07:20;21.20;99.90
17178;DHT22;8704;52.006;4.374;2022-07-31T16:10:09;21.30;99.90
17178;DHT22;8704;52.006;4.374;2022-07-31T16:12:43;21.20;99.90